»·PEaware :: N8091E KAVX-KSAN

N8091E :: KAVX-KSAN

FLIGHT INFORMATION

Flight Status: Arrived
Operator: Privately registered:
United States
More flights under this callsign
Pilot: Sander O. (16958)
Aircraft: CESSNA 172 SKYHAWK
(C172)
More flights by this aircraft type
Origin: KAVX Catalina
United States
Destination: KSAN San Diego Intl-Lindbergh
United States
More flights between these airports :: More routes between these airports
Route: SXC V208 OCN V23 MZB
File this flight plan on PilotEdge
Remarks: I-08
Altitude:
(Current/Filed)
5,000ft
Speed:
(Current/Filed)
0kts
Departed: 06-Dec-17 12:53 PM
Arrived: 06-Dec-17 01:58 PM
Distance/Time
Traveled:
74nm/1:05
Distance/Time
To Go:
Arrived

Flight Plot

Page will automatically refresh every two minutes.


Map Options




Map Legend


Flown Route
Filed Route
Departure Airport
Arrival Airport
Navaid (VOR, NDB)
Fix

Horizontal Profiles

Position Reports

Time Latitude Longitude Heading Altitude Ground
Speed
06-Dec-17 12:43 33.403300 -118.415964 45 1606ft 0kts
06-Dec-17 12:44 33.403300 -118.415964 45 1606ft 0kts
06-Dec-17 12:45 33.403300 -118.415964 45 1606ft 0kts
06-Dec-17 12:46 33.403300 -118.415964 45 1606ft 0kts
06-Dec-17 12:47 33.403300 -118.415964 45 1606ft 0kts
06-Dec-17 12:48 33.403300 -118.415964 45 1606ft 0kts
06-Dec-17 12:49 33.403300 -118.415964 45 1606ft 0kts
06-Dec-17 12:50 33.403300 -118.415964 45 1606ft 0kts
06-Dec-17 12:51 33.403300 -118.415964 45 1606ft 0kts
06-Dec-17 12:52 33.403300 -118.415964 45 1606ft 0kts
06-Dec-17 12:53 33.403300 -118.415964 45 1606ft 0kts
06-Dec-17 12:54 33.403359 -118.415877 56 1606ft 6kts
06-Dec-17 12:55 33.405727 -118.413821 55 1606ft 16kts
06-Dec-17 12:56 33.407106 -118.411506 53 1606ft 0kts
06-Dec-17 12:57 33.407144 -118.411444 54 1606ft 3kts
06-Dec-17 12:58 33.400572 -118.423639 234 1874ft 90kts
06-Dec-17 12:59 33.386041 -118.448533 219 2812ft 90kts
06-Dec-17 13:00 33.373767 -118.437992 94 3804ft 64kts
06-Dec-17 13:01 33.371859 -118.421199 81 4555ft 53kts
06-Dec-17 13:02 33.371348 -118.397369 91 5117ft 88kts
06-Dec-17 13:03 33.368026 -118.364320 94 5175ft 104kts
06-Dec-17 13:04 33.363892 -118.330249 94 5182ft 103kts
06-Dec-17 13:05 33.359502 -118.295840 95 5129ft 106kts
06-Dec-17 13:06 33.354922 -118.260624 95 5036ft 105kts
06-Dec-17 13:07 33.350462 -118.226699 95 5039ft 103kts
06-Dec-17 13:08 33.346017 -118.192739 94 5039ft 103kts
06-Dec-17 13:09 33.341524 -118.158872 94 5036ft 103kts
06-Dec-17 13:10 33.337085 -118.125278 94 5063ft 102kts
06-Dec-17 13:11 33.332576 -118.091826 94 5062ft 102kts
06-Dec-17 13:12 33.328107 -118.058056 94 5060ft 103kts
06-Dec-17 13:13 33.323581 -118.023805 93 5057ft 105kts
06-Dec-17 13:14 33.318952 -117.988993 92 5055ft 107kts
06-Dec-17 13:15 33.314184 -117.953195 92 5051ft 110kts
06-Dec-17 13:16 33.309297 -117.916488 92 5047ft 113kts
06-Dec-17 13:17 33.304281 -117.878918 93 5043ft 117kts
06-Dec-17 13:18 33.299059 -117.839899 93 5038ft 120kts
06-Dec-17 13:19 33.293671 -117.800092 94 5037ft 122kts
06-Dec-17 13:20 33.288232 -117.760174 95 5037ft 122kts
06-Dec-17 13:21 33.282756 -117.719922 95 5037ft 123kts
06-Dec-17 13:23 33.277263 -117.679612 95 5038ft 123kts
06-Dec-17 13:24 33.271748 -117.639192 95 5038ft 123kts
06-Dec-17 13:25 33.266225 -117.598861 95 5046ft 123kts
06-Dec-17 13:25 33.261610 -117.565469 94 5045ft 122kts
06-Dec-17 13:27 33.255307 -117.519607 93 5041ft 119kts
06-Dec-17 13:27 33.250919 -117.487638 93 5038ft 117kts
06-Dec-17 13:29 33.244875 -117.443582 93 5034ft 114kts
06-Dec-17 13:29 33.234426 -117.416607 152 5034ft 121kts
06-Dec-17 13:30 33.203211 -117.401749 155 5031ft 122kts
06-Dec-17 13:32 33.165959 -117.385850 157 5030ft 123kts
06-Dec-17 13:32 33.139203 -117.374619 157 5029ft 123kts
06-Dec-17 13:33 33.107091 -117.361134 158 5028ft 123kts
06-Dec-17 13:34 33.074758 -117.347565 158 5028ft 124kts
06-Dec-17 13:35 33.042301 -117.333937 157 5028ft 125kts
06-Dec-17 13:36 33.009334 -117.320099 157 5028ft 126kts
06-Dec-17 13:37 32.976189 -117.306206 157 5028ft 126kts
06-Dec-17 13:38 32.942949 -117.292274 156 5027ft 127kts
06-Dec-17 13:39 32.910400 -117.278646 157 5027ft 126kts
06-Dec-17 13:40 32.877477 -117.264632 156 5024ft 125kts
06-Dec-17 13:41 32.845030 -117.250607 156 5025ft 124kts
06-Dec-17 13:42 32.813169 -117.234575 153 5018ft 127kts
06-Dec-17 13:43 32.800692 -117.196947 101 5006ft 127kts
06-Dec-17 13:44 32.791883 -117.157264 101 4999ft 128kts
06-Dec-17 13:45 32.783369 -117.117312 101 4993ft 129kts
06-Dec-17 13:46 32.775416 -117.076446 101 4988ft 129kts
06-Dec-17 13:47 32.772013 -117.038435 101 5004ft 112kts
06-Dec-17 13:48 32.761396 -117.003992 119 4558ft 112kts
06-Dec-17 13:49 32.749247 -116.972473 119 3991ft 100kts
06-Dec-17 13:50 32.739008 -116.945242 119 3969ft 89kts
06-Dec-17 13:51 32.727458 -116.920304 150 3951ft 95kts
06-Dec-17 13:52 32.700539 -116.924601 189 3996ft 91kts
06-Dec-17 13:53 32.683180 -116.941716 260 3920ft 96kts
06-Dec-17 13:54 32.680918 -116.972874 283 3778ft 91kts
06-Dec-17 13:55 32.687981 -117.002215 287 3605ft 95kts
06-Dec-17 13:56 32.694980 -117.030057 285 3590ft 88kts
06-Dec-17 13:57 32.701829 -117.058097 285 3239ft 87kts
06-Dec-17 13:58 32.708725 -117.086555 284 2456ft 93kts
06-Dec-17 13:59 32.714692 -117.111276 284 1703ft 76kts
06-Dec-17 14:00 32.720190 -117.134074 284 1031ft 69kts
06-Dec-17 14:01 32.725258 -117.155144 284 631ft 64kts
06-Dec-17 14:02 32.730088 -117.175316 284 190ft 63kts
06-Dec-17 14:03 32.733578 -117.188104 351 21ft 12kts
06-Dec-17 14:04 32.734414 -117.188526 286 21ft 11kts
06-Dec-17 14:05 32.735277 -117.189246 197 21ft 0kts
06-Dec-17 14:06 32.735277 -117.189246 197 21ft 0kts

Navigation Log

Ident Type
1. KAVX Airport
2. SXC Navaid
3. AVOLS Fix
4. PACIF Fix
5. HUBRD Fix
6. OCN Navaid
7. HURSI Fix
8. CARIF Fix
9. MZB Navaid
10. KSAN Airport